createdAt,value
2024-04-09T00:04:35.169Z,17.14
2024-04-09T00:09:46.309Z,17.20
2024-04-09T00:14:51.759Z,17.19
2024-04-09T00:19:56.931Z,17.20
2024-04-09T00:25:04.399Z,17.46
2024-04-09T00:30:09.887Z,17.33
2024-04-09T00:35:15.290Z,17.42
2024-04-09T00:40:22.622Z,17.48
2024-04-09T00:45:28.828Z,17.56
2024-04-09T00:50:34.174Z,17.58
2024-04-09T00:55:46.917Z,17.25
2024-04-09T01:00:51.740Z,17.67
2024-04-09T01:05:56.800Z,17.14
2024-04-09T01:11:03.958Z,17.82
2024-04-09T01:16:09.408Z,17.84
2024-04-09T01:21:15.634Z,17.66
2024-04-09T01:26:24.344Z,17.88
2024-04-09T01:31:31.113Z,17.85
2024-04-09T01:36:35.710Z,17.82
2024-04-09T01:41:42.988Z,17.75
2024-04-09T01:46:49.823Z,17.68
2024-04-09T01:51:55.300Z,17.32
2024-04-09T01:57:02.776Z,17.44
2024-04-09T02:02:07.716Z,17.42
2024-04-09T02:07:13.799Z,17.37
2024-04-09T02:12:20.911Z,16.84
2024-04-09T02:17:25.339Z,16.98
2024-04-09T02:22:31.567Z,16.91
2024-04-09T02:27:38.925Z,16.90
2024-04-09T02:32:43.844Z,16.43
2024-04-09T02:37:48.569Z,16.25
2024-04-09T02:42:57.446Z,16.56
2024-04-09T02:48:02.229Z,16.59
2024-04-09T02:53:10.601Z,16.51
2024-04-09T02:58:17.550Z,16.44
2024-04-09T03:03:22.056Z,16.60
2024-04-09T03:08:26.804Z,16.29
2024-04-09T03:13:36.337Z,16.54
2024-04-09T03:18:40.920Z,16.43
2024-04-09T03:23:47.401Z,16.25
2024-04-09T03:28:54.560Z,16.44
2024-04-09T03:34:01.765Z,16.31
2024-04-09T03:39:09.010Z,16.25
2024-04-09T03:44:16.657Z,16.34
2024-04-09T03:49:21.904Z,16.07
2024-04-09T03:54:26.855Z,16.29
2024-04-09T03:59:33.979Z,16.39
2024-04-09T04:04:39.365Z,16.14
2024-04-09T04:09:44.128Z,16.37
2024-04-09T04:14:51.325Z,15.61
2024-04-09T04:19:56.924Z,16.32
2024-04-09T04:25:01.419Z,15.34
2024-04-09T04:30:10.088Z,15.37
2024-04-09T04:35:14.522Z,16.11
2024-04-09T04:40:19.008Z,16.36
2024-04-09T04:45:26.192Z,16.32
2024-04-09T04:50:30.650Z,15.82
2024-04-09T04:55:35.958Z,15.71
2024-04-09T05:00:43.663Z,15.51
2024-04-09T05:05:50.452Z,15.93
2024-04-09T05:10:55.291Z,15.22
2024-04-09T05:16:02.328Z,15.89
2024-04-09T05:21:09.643Z,16.03
2024-04-09T05:26:14.247Z,15.94
2024-04-09T05:31:21.824Z,16.18
2024-04-09T05:36:28.199Z,16.02
2024-04-09T05:41:32.625Z,15.81
2024-04-09T05:46:41.794Z,15.83
2024-04-09T05:51:46.228Z,16.21
2024-04-09T05:56:51.177Z,16.18
2024-04-09T06:02:00.892Z,15.46
2024-04-09T06:07:05.366Z,15.82
2024-04-09T06:12:10.283Z,15.74
2024-04-09T06:17:17.273Z,15.73
2024-04-09T06:22:21.651Z,15.70
2024-04-09T06:27:26.081Z,15.32
2024-04-09T06:32:33.506Z,15.30
2024-04-09T06:37:38.488Z,15.30
2024-04-09T06:42:43.017Z,14.89
2024-04-09T06:47:51.693Z,14.80
2024-04-09T06:52:59.126Z,14.70
2024-04-09T06:58:03.665Z,14.50
2024-04-09T07:03:11.656Z,14.41
2024-04-09T07:08:16.337Z,14.51
2024-04-09T07:13:21.194Z,14.67
2024-04-09T07:18:29.067Z,15.00
2024-04-09T07:23:35.579Z,14.33
2024-04-09T07:28:39.987Z,14.37
2024-04-09T07:33:50.677Z,14.85
2024-04-09T07:38:55.273Z,14.46
2024-04-09T07:44:03.010Z,14.56
2024-04-09T07:49:10.449Z,14.64
2024-04-09T07:54:15.066Z,14.12
2024-04-09T07:59:19.551Z,14.48
2024-04-09T08:04:27.114Z,14.43
2024-04-09T08:09:33.126Z,14.56
2024-04-09T08:14:37.825Z,14.81
2024-04-09T08:19:45.056Z,14.52
2024-04-09T08:24:49.580Z,14.85
2024-04-09T08:29:54.066Z,14.78
2024-04-09T08:35:02.798Z,14.57
2024-04-09T08:40:11.426Z,14.82
2024-04-09T08:45:18.867Z,14.64
2024-04-09T08:50:27.013Z,14.29
2024-04-09T08:55:37.320Z,14.76
2024-04-09T09:00:42.002Z,14.72
2024-04-09T09:06:01.144Z,14.20
2024-04-09T09:11:06.025Z,14.16
2024-04-09T09:16:12.239Z,14.75
2024-04-09T09:21:20.132Z,14.25
2024-04-09T09:26:27.419Z,14.17
2024-04-09T09:31:33.467Z,14.21
2024-04-09T09:36:41.245Z,14.05
2024-04-09T09:41:47.710Z,14.81
2024-04-09T09:46:53.433Z,14.84
2024-04-09T09:52:00.689Z,14.52
2024-04-09T09:57:10.388Z,14.76
2024-04-09T10:02:17.417Z,13.88
2024-04-09T10:07:26.003Z,14.41
2024-04-09T10:12:33.751Z,14.64
2024-04-09T10:17:53.808Z,14.91
2024-04-09T10:23:03.793Z,15.21
2024-04-09T10:28:11.876Z,14.41
2024-04-09T10:33:17.318Z,15.66
2024-04-09T10:38:28.035Z,15.17
2024-04-09T10:43:38.027Z,15.41
2024-04-09T10:48:43.796Z,15.21
2024-04-09T10:53:51.547Z,15.01
2024-04-09T10:58:57.087Z,15.22
2024-04-09T11:04:02.545Z,14.95
2024-04-09T11:09:09.923Z,14.63
2024-04-09T11:14:15.813Z,14.82
2024-04-09T11:19:27.361Z,14.65
2024-04-09T11:24:35.038Z,15.12
2024-04-09T11:29:39.543Z,15.39
2024-04-09T11:34:44.560Z,15.74
2024-04-09T11:39:51.987Z,15.84
2024-04-09T11:45:02.940Z,15.71
2024-04-09T11:50:08.159Z,15.51
2024-04-09T11:55:18.407Z,15.41
2024-04-09T12:00:24.005Z,15.33
2024-04-09T12:05:29.154Z,15.66
2024-04-09T12:10:36.493Z,15.17
2024-04-09T12:15:41.026Z,15.68
2024-04-09T12:20:45.793Z,15.76
2024-04-09T12:25:52.914Z,15.82
2024-04-09T12:31:00.834Z,15.64
2024-04-09T12:36:05.634Z,16.04
2024-04-09T12:41:13.310Z,15.75
2024-04-09T12:46:20.458Z,16.10
2024-04-09T12:51:25.022Z,15.77
2024-04-09T12:56:32.034Z,15.67
2024-04-09T13:01:36.725Z,15.79
2024-04-09T13:06:41.691Z,16.04
2024-04-09T13:11:48.872Z,16.55
2024-04-09T13:16:54.388Z,16.49
2024-04-09T13:22:03.372Z,16.57
2024-04-09T13:27:10.602Z,16.64
2024-04-09T13:32:17.747Z,16.93
2024-04-09T13:37:22.420Z,16.12
2024-04-09T13:42:32.099Z,16.10
2024-04-09T13:47:36.679Z,16.18
2024-04-09T13:52:43.571Z,16.07
2024-04-09T13:57:50.867Z,16.16
2024-04-09T14:02:55.914Z,16.30
2024-04-09T14:08:00.895Z,15.59
2024-04-09T14:13:09.216Z,15.90
2024-04-09T14:18:17.800Z,15.68
2024-04-09T14:23:24.121Z,15.25
2024-04-09T14:28:33.005Z,15.52
2024-04-09T14:33:37.891Z,15.54
2024-04-09T14:38:42.569Z,14.91
2024-04-09T14:43:50.010Z,14.63
2024-04-09T14:48:56.086Z,14.99
2024-04-09T14:54:01.037Z,14.58
2024-04-09T14:59:09.149Z,14.68
2024-04-09T15:04:14.186Z,14.87
2024-04-09T15:09:19.295Z,14.95
2024-04-09T15:14:26.619Z,15.19
2024-04-09T15:19:32.434Z,15.41
2024-04-09T15:24:37.027Z,15.37
2024-04-09T15:29:44.388Z,15.40
2024-04-09T15:34:50.567Z,15.17
2024-04-09T15:39:55.334Z,15.19
2024-04-09T15:45:02.520Z,14.97
2024-04-09T15:50:08.241Z,14.84
2024-04-09T15:55:15.669Z,14.84
2024-04-09T16:00:25.081Z,14.68
2024-04-09T16:05:30.122Z,14.70
2024-04-09T16:10:34.727Z,14.57
2024-04-09T16:15:41.775Z,14.85
2024-04-09T16:20:46.347Z,14.74
2024-04-09T16:25:50.944Z,14.34
2024-04-09T16:30:59.153Z,14.24
2024-04-09T16:36:03.552Z,14.25
2024-04-09T16:41:08.804Z,14.01
2024-04-09T16:46:19.672Z,14.11
2024-04-09T16:51:24.740Z,13.98
2024-04-09T16:56:29.648Z,14.54
2024-04-09T17:01:37.691Z,14.55
2024-04-09T17:06:42.058Z,14.35
2024-04-09T17:11:47.052Z,14.07
2024-04-09T17:16:55.292Z,13.66
2024-04-09T17:22:00.219Z,13.44
2024-04-09T17:27:05.431Z,13.96
2024-04-09T17:32:13.642Z,14.10
2024-04-09T17:37:18.247Z,13.57
2024-04-09T17:42:24.034Z,13.69
2024-04-09T17:47:31.796Z,13.60
2024-04-09T17:52:37.802Z,13.39
2024-04-09T17:57:43.772Z,13.16
2024-04-09T18:02:51.888Z,13.55
2024-04-09T18:08:00.600Z,13.37
2024-04-09T18:13:06.753Z,13.43
2024-04-09T18:18:13.949Z,13.27
2024-04-09T18:23:22.992Z,13.42
2024-04-09T18:28:27.669Z,13.57
2024-04-09T18:33:36.294Z,12.96
2024-04-09T18:38:44.148Z,12.95
2024-04-09T18:43:48.847Z,12.94
2024-04-09T18:48:57.990Z,12.49
2024-04-09T18:54:02.618Z,13.22
2024-04-09T18:59:09.690Z,13.14
2024-04-09T19:04:22.614Z,13.24
2024-04-09T19:09:30.934Z,12.79
2024-04-09T19:14:37.287Z,12.49
2024-04-09T19:19:45.722Z,13.01
2024-04-09T19:24:50.206Z,12.60
2024-04-09T19:29:54.718Z,12.87
2024-04-09T19:35:02.446Z,12.14
2024-04-09T19:40:09.984Z,12.72
2024-04-09T19:45:14.461Z,12.60
2024-04-09T19:50:21.632Z,12.12
2024-04-09T19:55:26.129Z,12.87
2024-04-09T20:00:35.435Z,12.50
2024-04-09T20:05:43.473Z,12.81
2024-04-09T20:10:57.074Z,12.71
2024-04-09T20:16:02.207Z,13.02
2024-04-09T20:21:09.530Z,12.26
2024-04-09T20:26:15.726Z,12.09
2024-04-09T20:31:21.621Z,12.46
2024-04-09T20:36:29.193Z,12.41
2024-04-09T20:41:35.756Z,12.32
2024-04-09T20:46:43.507Z,12.13
2024-04-09T20:51:52.415Z,11.98
2024-04-09T20:56:58.453Z,11.02
2024-04-09T21:02:05.828Z,11.45
2024-04-09T21:07:13.514Z,11.99
2024-04-09T21:12:18.610Z,12.40
2024-04-09T21:17:23.102Z,12.15
2024-04-09T21:22:32.527Z,11.48
2024-04-09T21:27:39.325Z,10.81
2024-04-09T21:32:46.094Z,12.48
2024-04-09T21:37:53.261Z,12.43
2024-04-09T21:42:57.733Z,12.28
2024-04-09T21:48:02.330Z,12.27
2024-04-09T21:53:09.677Z,11.62
2024-04-09T21:58:14.179Z,12.28
2024-04-09T22:03:18.685Z,12.38
2024-04-09T22:08:25.857Z,11.88
2024-04-09T22:13:31.545Z,12.03
2024-04-09T22:18:36.140Z,11.61
2024-04-09T22:23:43.273Z,11.97
2024-04-09T22:28:50.931Z,12.10
2024-04-09T22:33:55.443Z,12.07
2024-04-09T22:39:02.513Z,12.31
2024-04-09T22:44:10.055Z,11.85
2024-04-09T22:49:15.157Z,12.25
2024-04-09T22:54:22.359Z,12.01
2024-04-09T22:59:27.229Z,11.07
2024-04-09T23:04:31.837Z,11.25
2024-04-09T23:09:39.052Z,11.55
2024-04-09T23:14:51.011Z,12.11
2024-04-09T23:19:55.658Z,11.70
2024-04-09T23:25:06.991Z,11.87
2024-04-09T23:30:11.859Z,11.75
2024-04-09T23:35:16.471Z,11.82
2024-04-09T23:40:23.548Z,11.69
2024-04-09T23:45:29.244Z,11.73
2024-04-09T23:50:33.850Z,11.46
2024-04-09T23:55:41.486Z,11.80
